Marine Hornbill — 3FEF3 — position and weather

sailwx.info

Track history (hours):
 
Tides and Currents Weather Stations Pressure Air Temp Water Temp Dewpoint Dewpoint Depression Visibility Wind Speed Wind Dir Waves Ship Positions

Marine Hornbill

Last reported at 2017-Apr-28 11:21 UTC. Time now 2017-Apr-29 23:31 UTC.
Position N 34°04' E 134°57'.

Length 116 m; draft 7.5 m.

Type: Cargo ship. MMSI: 357869000.

Date/timePositionNaut miles runAvg speedWind from/ knotsBaromVisibWave heightAir tempDewpointWater temp
2017-Apr-28 11:21N 34°04' E 134°57'411.0
2017-Apr-28 11:00N 34°08' E 134°58'611.4
2017-Apr-28 10:30N 34°14' E 134°58'5 9.6
2017-Apr-28 10:00N 34°18' E 134°59'610.8
2017-Apr-28 09:29N 34°24' E 135°00'510.6
2017-Apr-28 09:00N 34°29' E 135°02'510.3
2017-Apr-28 08:30N 34°34' E 135°03'510.8
2017-Apr-28 08:00N 34°37' E 134°58'712.7
2017-Apr-28 07:29N 34°39' E 134°50'  
2017-Apr-23 03:46N 34°41' E 134°45'810.4
2017-Apr-23 03:02N 34°38' E 134°53'1 8.9
2017-Apr-23 02:58N 34°37' E 134°54'510.3
2017-Apr-23 02:28N 34°38' E 134°60'4 8.8
2017-Apr-23 02:00N 34°36' E 135°04'5 9.9
2017-Apr-23 01:30N 34°31' E 135°04'611.4
2017-Apr-23 01:00N 34°25' E 135°03'511.0
2017-Apr-23 00:30N 34°20' E 135°01'510.7
2017-Apr-23 00:00N 34°15' E 134°59'611.2
2017-Apr-22 23:30N 34°09' E 134°59'611.2
2017-Apr-22 23:00N 34°04' E 134°60'611.4
2017-Apr-22 22:30N 33°58' E 135°00'  
2017-Apr-19 12:00N 34°00' E 134°60'711.1
2017-Apr-19 11:21N 34°07' E 134°59'512.2
2017-Apr-19 10:59N 34°12' E 134°59'612.9
2017-Apr-19 10:29N 34°18' E 134°59'811.8
2017-Apr-19 09:48N 34°25' E 135°05'412.5
2017-Apr-19 09:30N 34°27' E 135°09'611.9
2017-Apr-19 09:00N 34°29' E 135°15'611.4
2017-Apr-19 08:29N 34°33' E 135°21'2 4.9
2017-Apr-19 07:59N 34°31' E 135°23'0 0.2
2017-Apr-19 07:29N 34°31' E 135°23'0 0.0
2017-Apr-19 06:59N 34°31' E 135°23'0 0.0
2017-Apr-19 06:23N 34°31' E 135°23'0 0.0
2017-Apr-19 05:59N 34°31' E 135°23'0 0.0
2017-Apr-19 05:29N 34°31' E 135°23'0 0.0
2017-Apr-19 04:53N 34°31' E 135°23'0 0.0
2017-Apr-19 04:29N 34°31' E 135°23'0 0.0
2017-Apr-19 03:59N 34°31' E 135°23'0 0.0
2017-Apr-19 03:29N 34°31' E 135°23'0 0.0
2017-Apr-19 01:59N 34°31' E 135°23'0 0.0
2017-Apr-19 01:29N 34°31' E 135°23'0 0.0
2017-Apr-19 00:59N 34°31' E 135°23'0 0.0
2017-Apr-19 00:11N 34°31' E 135°23'0 0.0
2017-Apr-18 23:53N 34°31' E 135°23'0 0.0
2017-Apr-18 23:29N 34°31' E 135°23'0 0.0
2017-Apr-18 22:59N 34°31' E 135°23'0 0.0
2017-Apr-18 22:17N 34°31' E 135°23'0 0.0
2017-Apr-18 21:59N 34°31' E 135°23'0 0.0
2017-Apr-18 21:05N 34°31' E 135°23'0 0.1
2017-Apr-18 20:59N 34°31' E 135°23'0 0.0
2017-Apr-18 20:17N 34°31' E 135°23'0 0.0
2017-Apr-18 19:59N 34°31' E 135°23'0 0.0
2017-Apr-18 19:29N 34°31' E 135°23'0 0.0
2017-Apr-18 18:59N 34°31' E 135°23'0 0.0
2017-Apr-18 18:29N 34°31' E 135°23'0 0.0
2017-Apr-18 17:59N 34°31' E 135°23'0 0.0
2017-Apr-18 17:29N 34°31' E 135°23'0 0.0
2017-Apr-18 16:59N 34°31' E 135°23'0 0.0
2017-Apr-18 16:29N 34°31' E 135°23'0 0.0
2017-Apr-18 15:47N 34°31' E 135°23'0 0.0
2017-Apr-18 15:29N 34°31' E 135°23'0 0.0
2017-Apr-18 14:59N 34°31' E 135°23'0 0.0
2017-Apr-18 14:23N 34°31' E 135°23'0 0.0
2017-Apr-18 13:29N 34°31' E 135°23'0 0.0
2017-Apr-18 12:59N 34°31' E 135°23'0 0.0
2017-Apr-18 12:29N 34°31' E 135°23'0 0.0
2017-Apr-18 11:59N 34°31' E 135°23'0 0.0
2017-Apr-18 11:29N 34°31' E 135°23'  
Track history (hours):
 
Tides and Currents Weather Stations Pressure Air Temp Water Temp Dewpoint Dewpoint Depression Visibility Wind Speed Wind Dir Waves Ship Positions

Marine Hornbill

Last reported at 2017-Apr-28 11:21 UTC. Time now 2017-Apr-29 23:31 UTC.
Position N 34°04' E 134°57'.

Length 116 m; draft 7.5 m.

Type: Cargo ship. MMSI: 357869000.

Date/timePositionNaut miles runAvg speedWind from/ knotsBaromVisibWave heightAir tempDewpointWater temp
2017-Apr-28 11:21N 34°04' E 134°57'411.0
2017-Apr-28 11:00N 34°08' E 134°58'611.4
2017-Apr-28 10:30N 34°14' E 134°58'5 9.6
2017-Apr-28 10:00N 34°18' E 134°59'610.8
2017-Apr-28 09:29N 34°24' E 135°00'510.6
2017-Apr-28 09:00N 34°29' E 135°02'510.3
2017-Apr-28 08:30N 34°34' E 135°03'510.8
2017-Apr-28 08:00N 34°37' E 134°58'712.7
2017-Apr-28 07:29N 34°39' E 134°50'  
2017-Apr-23 03:46N 34°41' E 134°45'810.4
2017-Apr-23 03:02N 34°38' E 134°53'1 8.9
2017-Apr-23 02:58N 34°37' E 134°54'510.3
2017-Apr-23 02:28N 34°38' E 134°60'4 8.8
2017-Apr-23 02:00N 34°36' E 135°04'5 9.9
2017-Apr-23 01:30N 34°31' E 135°04'611.4
2017-Apr-23 01:00N 34°25' E 135°03'511.0
2017-Apr-23 00:30N 34°20' E 135°01'510.7
2017-Apr-23 00:00N 34°15' E 134°59'611.2
2017-Apr-22 23:30N 34°09' E 134°59'611.2
2017-Apr-22 23:00N 34°04' E 134°60'611.4
2017-Apr-22 22:30N 33°58' E 135°00'  
2017-Apr-19 12:00N 34°00' E 134°60'711.1
2017-Apr-19 11:21N 34°07' E 134°59'512.2
2017-Apr-19 10:59N 34°12' E 134°59'612.9
2017-Apr-19 10:29N 34°18' E 134°59'811.8
2017-Apr-19 09:48N 34°25' E 135°05'412.5
2017-Apr-19 09:30N 34°27' E 135°09'611.9
2017-Apr-19 09:00N 34°29' E 135°15'611.4
2017-Apr-19 08:29N 34°33' E 135°21'2 4.9
2017-Apr-19 07:59N 34°31' E 135°23'0 0.2
2017-Apr-19 07:29N 34°31' E 135°23'0 0.0
2017-Apr-19 06:59N 34°31' E 135°23'0 0.0
2017-Apr-19 06:23N 34°31' E 135°23'0 0.0
2017-Apr-19 05:59N 34°31' E 135°23'0 0.0
2017-Apr-19 05:29N 34°31' E 135°23'0 0.0
2017-Apr-19 04:53N 34°31' E 135°23'0 0.0
2017-Apr-19 04:29N 34°31' E 135°23'0 0.0
2017-Apr-19 03:59N 34°31' E 135°23'0 0.0
2017-Apr-19 03:29N 34°31' E 135°23'0 0.0
2017-Apr-19 01:59N 34°31' E 135°23'0 0.0
2017-Apr-19 01:29N 34°31' E 135°23'0 0.0
2017-Apr-19 00:59N 34°31' E 135°23'0 0.0
2017-Apr-19 00:11N 34°31' E 135°23'0 0.0
2017-Apr-18 23:53N 34°31' E 135°23'0 0.0
2017-Apr-18 23:29N 34°31' E 135°23'0 0.0
2017-Apr-18 22:59N 34°31' E 135°23'0 0.0
2017-Apr-18 22:17N 34°31' E 135°23'0 0.0
2017-Apr-18 21:59N 34°31' E 135°23'0 0.0
2017-Apr-18 21:05N 34°31' E 135°23'0 0.1
2017-Apr-18 20:59N 34°31' E 135°23'0 0.0
2017-Apr-18 20:17N 34°31' E 135°23'0 0.0
2017-Apr-18 19:59N 34°31' E 135°23'0 0.0
2017-Apr-18 19:29N 34°31' E 135°23'0 0.0
2017-Apr-18 18:59N 34°31' E 135°23'0 0.0
2017-Apr-18 18:29N 34°31' E 135°23'0 0.0
2017-Apr-18 17:59N 34°31' E 135°23'0 0.0
2017-Apr-18 17:29N 34°31' E 135°23'0 0.0
2017-Apr-18 16:59N 34°31' E 135°23'0 0.0
2017-Apr-18 16:29N 34°31' E 135°23'0 0.0
2017-Apr-18 15:47N 34°31' E 135°23'0 0.0
2017-Apr-18 15:29N 34°31' E 135°23'0 0.0
2017-Apr-18 14:59N 34°31' E 135°23'0 0.0
2017-Apr-18 14:23N 34°31' E 135°23'0 0.0
2017-Apr-18 13:29N 34°31' E 135°23'0 0.0
2017-Apr-18 12:59N 34°31' E 135°23'0 0.0
2017-Apr-18 12:29N 34°31' E 135°23'0 0.0
2017-Apr-18 11:59N 34°31' E 135°23'0 0.0
2017-Apr-18 11:29N 34°31' E 135°23'  

Dump ship's entire track history